Time;durP1;ratioP1;P1;durP2;ratioP2;P2;SDS_P1;SDS_P2;PMS_P1;PMS_P2;Temp;Humidity;BMP_temperature;BMP_pressure;BME280_temperature;BME280_humidity;BME280_pressure;Samples;Min_cycle;Max_cycle;Signal;HPM_P1;HPM_P2
2023/05/08 00:00:41;;;;;;;14.95;13.75;;;;;;;9.05;57.56;101349.00;4913369;28;101123;-83
2023/05/08 00:03:06;;;;;;;14.90;13.73;;;;;;;8.93;58.49;101345.63;4902919;28;96918;-83
2023/05/08 00:05:32;;;;;;;15.82;14.45;;;;;;;8.96;58.73;101361.31;4916830;28;96822;-83
2023/05/08 00:08:00;;;;;;;14.52;13.52;;;;;;;9.05;58.43;101364.72;4876491;28;101372;-83
2023/05/08 00:10:29;;;;;;;15.18;14.07;;;;;;;9.09;58.02;101364.69;4876071;28;101230;-83
2023/05/08 00:12:55;;;;;;;15.93;14.23;;;;;;;8.88;58.92;101360.56;4906129;28;97139;-84
2023/05/08 00:15:21;;;;;;;15.15;14.05;;;;;;;8.84;59.56;101372.78;4908828;28;97319;-83
2023/05/08 00:17:47;;;;;;;14.90;13.77;;;;;;;8.87;59.58;101367.53;4911035;28;98072;-83
2023/05/08 00:20:12;;;;;;;17.75;14.43;;;;;;;8.91;59.30;101366.63;4879815;28;101779;-83
2023/05/08 00:22:38;;;;;;;14.38;13.38;;;;;;;8.88;59.42;101368.41;4894979;28;98147;-83
2023/05/08 00:25:04;;;;;;;16.00;14.45;;;;;;;8.86;59.12;101357.09;4863596;28;96982;-84
2023/05/08 00:27:31;;;;;;;14.77;13.68;;;;;;;8.63;59.66;101339.84;4890991;28;101325;-83
2023/05/08 00:29:57;;;;;;;15.43;14.32;;;;;;;8.61;60.30;101360.81;4876756;28;101291;-83
2023/05/08 00:32:23;;;;;;;15.55;14.30;;;;;;;8.66;59.58;101347.66;4889522;28;96960;-84
2023/05/08 00:34:49;;;;;;;15.15;14.02;;;;;;;8.67;60.24;101367.75;4883779;28;96842;-83
2023/05/08 00:37:15;;;;;;;14.55;13.65;;;;;;;8.52;60.46;101360.00;4883954;28;101595;-84
2023/05/08 00:39:40;;;;;;;15.85;14.65;;;;;;;8.66;60.32;101362.50;4879810;28;101256;-83
2023/05/08 00:42:06;;;;;;;18.08;16.40;;;;;;;8.43;59.98;101324.31;4875513;28;97316;-83
2023/05/08 00:44:32;;;;;;;15.52;14.18;;;;;;;8.67;60.55;101364.22;4905676;28;96808;-83
2023/05/08 00:46:57;;;;;;;15.55;14.32;;;;;;;8.30;60.62;101320.06;4887086;28;101703;-83
2023/05/08 00:49:23;;;;;;;16.67;15.27;;;;;;;8.59;60.24;101351.25;4879906;28;101312;-83
2023/05/08 00:51:52;;;;;;;16.95;15.45;;;;;;;8.70;60.35;101362.47;4889508;28;97329;-83
2023/05/08 00:54:18;;;;;;;16.60;14.98;;;;;;;8.59;59.80;101351.25;4912413;28;97075;-84
2023/05/08 00:56:44;;;;;;;16.30;14.77;;;;;;;8.48;60.60;101342.63;4879319;28;101216;-84
2023/05/08 00:59:11;;;;;;;16.52;15.27;;;;;;;8.54;60.51;101369.59;4892193;28;98035;-84
2023/05/08 01:01:37;;;;;;;15.88;14.65;;;;;;;8.12;60.86;101316.72;4910106;28;97522;-83
2023/05/08 01:04:03;;;;;;;16.20;15.07;;;;;;;8.55;60.59;101373.97;4895218;28;97162;-84
2023/05/08 01:06:29;;;;;;;18.05;16.35;;;;;;;8.42;60.86;101355.75;4882842;28;101410;-83
2023/05/08 01:08:54;;;;;;;16.60;15.20;;;;;;;8.49;60.77;101368.75;4909530;28;101468;-83
2023/05/08 01:11:43;;;;;;;16.17;14.70;;;;;;;8.23;61.90;101366.34;4912843;28;97212;-81
2023/05/08 01:14:20;;;;;;;16.80;15.32;;;;;;;8.35;61.08;101368.88;4889820;28;97372;-83
2023/05/08 01:17:00;;;;;;;16.88;15.48;;;;;;;8.23;61.25;101342.81;4908302;28;100759;-83
2023/05/08 01:19:50;;;;;;;18.53;16.83;;;;;;;8.20;61.68;101378.56;4898873;28;100087;-83
2023/05/08 01:22:43;;;;;;;16.93;15.63;;;;;;;8.03;62.93;101373.44;4913657;28;97664;-83
2023/05/08 01:25:27;;;;;;;18.17;16.57;;;;;;;8.28;61.38;101380.25;4895148;28;97196;-84
2023/05/08 01:28:15;;;;;;;16.97;15.67;;;;;;;8.35;61.34;101376.72;4912766;28;101377;-83
2023/05/08 01:31:11;;;;;;;16.58;15.18;;;;;;;7.92;62.56;101350.00;4933457;28;101812;-83
2023/05/08 01:33:50;;;;;;;17.70;16.10;;;;;;;7.86;62.63;101371.81;4909231;28;97544;-83
2023/05/08 01:36:34;;;;;;;16.92;15.38;;;;;;;7.99;62.62;101366.50;4899630;28;97405;-83
2023/05/08 01:39:13;;;;;;;18.23;16.73;;;;;;;8.06;62.29;101374.31;4919926;28;100205;-83
2023/05/08 01:41:40;;;;;;;17.23;15.60;;;;;;;7.53;62.96;101331.06;4907630;28;101500;-83
2023/05/08 01:44:09;;;;;;;17.40;16.10;;;;;;;7.79;63.23;101377.09;4913277;28;97260;-81
2023/05/08 01:46:34;;;;;;;17.83;16.43;;;;;;;7.76;63.15;101379.72;4934184;28;97244;-83
2023/05/08 01:49:00;;;;;;;16.92;15.43;;;;;;;7.75;63.14;101389.31;4901022;28;101353;-84
2023/05/08 01:51:27;;;;;;;17.08;15.68;;;;;;;7.62;63.13;101351.03;4927525;28;101307;-84
2023/05/08 01:54:00;;;;;;;18.15;16.50;;;;;;;7.89;62.75;101377.03;4906304;28;97960;-83
2023/05/08 01:56:27;;;;;;;15.23;13.85;;;;;;;7.71;62.69;101354.50;4900002;28;97100;-83
2023/05/08 01:58:54;;;;;;;17.67;16.27;;;;;;;7.84;62.56;101372.72;4908561;28;100750;-84
2023/05/08 02:01:23;;;;;;;17.40;15.73;;;;;;;7.69;62.92;101382.38;4908554;28;100382;-83
2023/05/08 02:03:49;;;;;;;17.77;16.20;;;;;;;7.68;62.65;101367.56;4901289;28;96785;-84
2023/05/08 02:06:18;;;;;;;16.20;14.90;;;;;;;7.75;62.31;101384.09;4906374;28;97096;-83
2023/05/08 02:08:45;;;;;;;17.33;15.93;;;;;;;7.68;62.46;101380.66;4903379;28;102316;-84
2023/05/08 02:11:12;;;;;;;17.00;15.60;;;;;;;7.53;62.73;101356.31;4915183;28;100873;-83
2023/05/08 02:13:38;;;;;;;17.80;16.20;;;;;;;7.55;63.07;101383.31;4899744;28;97327;-83
2023/05/08 02:16:06;;;;;;;16.40;15.10;;;;;;;7.65;62.84;101392.84;4925697;28;98505;-84
2023/05/08 02:18:32;;;;;;;17.27;15.87;;;;;;;7.55;62.94;101397.25;4916441;28;101466;-83
2023/05/08 02:20:58;;;;;;;17.77;16.03;;;;;;;7.45;63.42;101396.44;4941272;28;98051;-84
2023/05/08 02:23:25;;;;;;;16.97;15.47;;;;;;;7.34;63.48;101386.91;4897405;28;96792;-84
2023/05/08 02:25:51;;;;;;;17.63;15.80;;;;;;;7.52;63.18;101405.09;4914083;28;97328;-83
2023/05/08 02:28:18;;;;;;;17.37;15.90;;;;;;;7.50;63.07;101393.78;4933816;28;98312;-83
2023/05/08 02:30:45;;;;;;;16.67;15.20;;;;;;;7.51;63.50;101402.50;4917955;28;101719;-84
2023/05/08 02:33:11;;;;;;;16.93;15.43;;;;;;;7.56;62.52;101400.72;4919366;28;96735;-84
2023/05/08 02:35:38;;;;;;;17.83;16.10;;;;;;;7.49;62.66;101384.22;4932339;28;97020;-84
2023/05/08 02:38:09;;;;;;;16.83;15.47;;;;;;;7.58;62.87;101405.06;4940168;28;98057;-84
2023/05/08 02:40:36;;;;;;;16.92;15.52;;;;;;;7.17;63.01;101366.06;4929732;28;100310;-84
2023/05/08 02:43:02;;;;;;;17.80;16.27;;;;;;;7.53;62.51;101421.63;4922741;28;98366;-83
2023/05/08 02:45:32;;;;;;;19.23;17.43;;;;;;;7.34;63.47;101419.09;4943808;28;96846;-83
2023/05/08 02:48:12;;;;;;;18.17;16.67;;;;;;;7.42;63.07;101412.13;4904580;28;101612;-83
2023/05/08 02:50:44;;;;;;;18.20;16.73;;;;;;;7.47;62.87;101419.91;4897835;28;100127;-84
2023/05/08 02:53:17;;;;;;;18.70;17.07;;;;;;;7.43;62.93;101419.06;4931474;28;96855;-84
2023/05/08 02:55:48;;;;;;;17.43;16.10;;;;;;;7.35;62.50;101380.78;4905367;28;96964;-83
2023/05/08 02:58:29;;;;;;;18.13;16.47;;;;;;;7.64;62.10;101425.09;4912946;28;101733;-83
2023/05/08 03:01:06;;;;;;;18.60;17.00;;;;;;;7.49;62.35;101420.78;4923529;28;100207;-84
2023/05/08 03:03:38;;;;;;;17.80;16.33;;;;;;;7.57;62.17;101426.00;4915895;28;97318;-83
2023/05/08 03:06:09;;;;;;;18.73;17.13;;;;;;;7.50;62.34;101412.06;4915547;28;96954;-84
2023/05/08 03:08:34;;;;;;;18.73;17.03;;;;;;;7.22;63.32;101425.25;4922302;28;101964;-84
2023/05/08 03:11:06;;;;;;;18.53;17.03;;;;;;;7.25;62.91;101406.94;4929028;28;101801;-83
2023/05/08 03:13:34;;;;;;;17.40;15.97;;;;;;;7.12;63.68;101414.81;4913772;28;96767;-84
2023/05/08 03:16:01;;;;;;;18.17;16.20;;;;;;;7.19;63.29;101417.41;4926828;28;97852;-84
2023/05/08 03:18:56;;;;;;;18.30;16.70;;;;;;;6.84;63.48;101380.09;4920623;28;101310;-85
2023/05/08 03:21:23;;;;;;;17.07;15.53;;;;;;;7.40;62.33;101431.28;4913303;28;100746;-84
2023/05/08 03:23:50;;;;;;;17.93;16.40;;;;;;;7.27;62.54;101417.38;4917767;28;97118;-84
2023/05/08 03:26:18;;;;;;;18.23;16.63;;;;;;;7.39;62.38;101422.59;4901507;28;97528;-84
2023/05/08 03:28:49;;;;;;;17.63;16.07;;;;;;;7.40;62.73;101420.84;4910924;28;100188;-84
2023/05/08 03:31:22;;;;;;;18.10;16.60;;;;;;;7.38;62.43;101433.03;4915715;28;102224;-84
2023/05/08 03:33:52;;;;;;;18.47;16.87;;;;;;;7.49;62.15;101421.66;4917322;28;97597;-85
2023/05/08 03:36:18;;;;;;;17.87;15.60;;;;;;;7.54;61.66;101426.88;4925574;28;97350;-84
2023/05/08 03:38:44;;;;;;;17.90;16.40;;;;;;;7.50;61.98;101419.91;4904902;28;101757;-84
2023/05/08 03:41:10;;;;;;;17.93;16.33;;;;;;;7.13;63.26;101432.25;4908458;28;101288;-84
2023/05/08 03:43:37;;;;;;;16.53;15.33;;;;;;;7.35;62.92;101439.13;4912468;28;97470;-84
2023/05/08 03:46:06;;;;;;;16.60;15.20;;;;;;;7.40;62.35;101420.84;4905771;28;96924;-83
2023/05/08 03:48:35;;;;;;;17.00;15.50;;;;;;;7.28;62.54;101403.47;4914596;28;101328;-84
2023/05/08 03:51:03;;;;;;;17.67;15.87;;;;;;;7.40;62.28;101411.25;4901510;28;100467;-84
2023/05/08 03:53:31;;;;;;;17.43;16.03;;;;;;;7.42;62.04;101426.94;4904669;28;97264;-84
2023/05/08 03:55:58;;;;;;;17.20;15.77;;;;;;;7.55;62.46;101446.91;4910005;28;96820;-83
2023/05/08 03:58:30;;;;;;;18.93;16.07;;;;;;;7.54;62.20;101426.00;4917711;28;101773;-84
2023/05/08 04:01:15;;;;;;;18.73;17.03;;;;;;;7.51;62.24;101457.38;4896837;28;101719;-84
2023/05/08 04:04:18;;;;;;;18.00;16.50;;;;;;;7.42;62.56;101453.91;4920646;28;97535;-84
2023/05/08 04:07:07;;;;;;;18.90;17.23;;;;;;;7.37;62.66;101439.13;4912907;28;98301;-84
2023/05/08 04:09:48;;;;;;;18.23;16.70;;;;;;;7.40;62.33;101426.06;4924351;28;101071;-84
2023/05/08 04:12:23;;;;;;;18.35;16.50;;;;;;;7.46;62.22;101416.44;4908197;28;101350;-84
2023/05/08 04:14:52;;;;;;;19.37;17.57;;;;;;;7.65;61.97;101450.34;4905367;28;97043;-84
2023/05/08 04:17:47;;;;;;;18.87;17.30;;;;;;;7.77;61.51;101439.84;4908410;28;96934;-83
2023/05/08 04:20:17;;;;;;;18.20;16.47;;;;;;;7.69;61.96;101450.31;4900000;28;101679;-84
2023/05/08 04:22:45;;;;;;;17.95;16.40;;;;;;;7.78;61.58;101443.31;4905308;28;101391;-84
2023/05/08 04:25:11;;;;;;;18.27;16.77;;;;;;;8.02;61.33;101458.88;4896504;28;98255;-85
2023/05/08 04:27:38;;;;;;;18.63;17.03;;;;;;;7.89;61.25;101449.38;4882267;28;97948;-85
2023/05/08 04:30:04;;;;;;;17.37;16.07;;;;;;;7.93;61.26;101441.50;4908688;28;97532;-84
2023/05/08 04:32:33;;;;;;;17.60;15.87;;;;;;;8.50;59.56;101446.41;4923078;28;101971;-84
2023/05/08 04:34:59;;;;;;;17.33;15.82;;;;;;;8.44;60.45;101482.22;4912930;28;97116;-84
2023/05/08 04:37:28;;;;;;;18.20;16.60;;;;;;;8.54;59.53;101455.09;4924548;28;96870;-84
2023/05/08 04:39:56;;;;;;;17.17;15.63;;;;;;;8.49;60.13;101456.88;4910535;28;101506;-84
2023/05/08 04:42:23;;;;;;;18.65;17.15;;;;;;;8.69;59.50;101481.13;4904008;28;99767;-84
2023/05/08 04:44:49;;;;;;;18.10;16.67;;;;;;;8.82;58.92;101482.78;4907718;28;96787;-84
2023/05/08 04:47:14;;;;;;;18.15;16.65;;;;;;;9.01;58.96;101480.00;4903545;28;97335;-85
2023/05/08 04:49:40;;;;;;;17.85;16.20;;;;;;;9.25;58.26;101484.13;4901114;28;100199;-84
2023/05/08 04:52:06;;;;;;;17.63;16.17;;;;;;;9.33;58.17;101500.66;4919387;28;101495;-85
2023/05/08 04:54:32;;;;;;;15.73;14.43;;;;;;;9.34;58.14;101496.28;4880613;28;96809;-85
2023/05/08 04:56:58;;;;;;;17.58;16.27;;;;;;;9.35;57.71;101495.41;4902449;28;96987;-83
2023/05/08 04:59:24;;;;;;;16.92;15.43;;;;;;;9.19;58.36;101494.66;4911432;28;101397;-82
2023/05/08 05:01:50;;;;;;;17.42;15.93;;;;;;;9.63;57.18;101506.44;4870529;28;101199;-84
2023/05/08 05:04:16;;;;;;;18.40;16.90;;;;;;;9.81;57.12;101489.66;4891867;28;96852;-84
2023/05/08 05:06:42;;;;;;;17.20;15.73;;;;;;;9.71;56.82;101489.72;4922364;28;96893;-83
2023/05/08 05:09:09;;;;;;;17.58;16.27;;;;;;;10.07;56.38;101499.81;4889423;28;101603;-82
2023/05/08 05:11:34;;;;;;;17.05;15.55;;;;;;;10.07;56.01;101503.28;4901049;28;101683;-82
2023/05/08 05:14:00;;;;;;;17.83;16.38;;;;;;;10.11;56.43;101520.72;4894499;28;97239;-84
2023/05/08 05:16:26;;;;;;;18.40;16.52;;;;;;;10.35;55.76;101501.16;4896095;28;97500;-88
2023/05/08 05:18:52;;;;;;;17.75;16.25;;;;;;;10.71;54.96;101509.41;4917895;28;100597;-85
2023/05/08 05:21:18;;;;;;;17.75;15.95;;;;;;;11.11;53.90;101490.34;4877910;28;101679;-84
2023/05/08 05:23:45;;;;;;;19.33;17.63;;;;;;;11.50;52.76;101504.53;4896584;28;96793;-85
2023/05/08 05:26:10;;;;;;;17.83;16.52;;;;;;;12.53;50.95;101488.34;4896066;28;97638;-83
2023/05/08 05:28:36;;;;;;;17.92;16.58;;;;;;;13.55;48.56;101509.44;4892800;28;100447;-79
2023/05/08 05:31:02;;;;;;;18.52;17.13;;;;;;;14.40;46.42;101491.16;4924743;28;100985;-79
2023/05/08 05:33:28;;;;;;;17.67;16.27;;;;;;;16.91;42.26;101483.81;4885492;28;97132;-79
2023/05/08 05:35:54;;;;;;;16.88;15.40;;;;;;;19.76;36.83;101472.84;4893237;28;97197;-80
2023/05/08 05:38:19;;;;;;;17.52;16.17;;;;;;;23.55;31.60;101462.66;4895680;28;101071;-80
2023/05/08 05:40:45;;;;;;;17.67;16.15;;;;;;;25.78;28.41;101468.31;4909771;28;100916;-80
2023/05/08 05:43:10;;;;;;;16.95;15.45;;;;;;;28.33;25.60;101422.25;4924592;28;97490;-80
2023/05/08 05:45:37;;;;;;;18.10;16.27;;;;;;;28.99;24.28;101446.69;4925226;28;97033;-80
2023/05/08 05:48:03;;;;;;;16.63;15.27;;;;;;;31.18;22.75;101453.13;4911535;28;98182;-80
2023/05/08 05:50:30;;;;;;;16.52;15.43;;;;;;;31.69;21.84;101446.81;4908823;28;101672;-80
2023/05/08 05:52:56;;;;;;;17.90;16.63;;;;;;;32.35;20.76;101450.63;4923876;28;97421;-80
2023/05/08 05:55:22;;;;;;;18.10;16.95;;;;;;;32.80;20.22;101462.03;4914481;28;97427;-80
2023/05/08 05:57:48;;;;;;;18.10;16.73;;;;;;;34.20;19.48;101456.03;4884381;28;101227;-81
2023/05/08 06:00:15;;;;;;;17.08;15.80;;;;;;;35.01;18.50;101440.09;4893852;28;100984;-81
2023/05/08 06:02:44;;;;;;;17.58;16.23;;;;;;;35.64;17.96;101448.81;4911126;28;98373;-81
2023/05/08 06:05:13;;;;;;;16.70;15.48;;;;;;;36.24;17.36;101457.72;4878006;28;97210;-82
2023/05/08 06:07:38;;;;;;;16.27;14.82;;;;;;;36.97;16.82;101432.97;4883354;28;101423;-81
2023/05/08 06:10:05;;;;;;;17.75;16.45;;;;;;;38.27;16.46;101445.84;4902910;28;101364;-81
2023/05/08 06:12:31;;;;;;;16.05;14.95;;;;;;;37.72;15.90;101440.41;4903856;28;97371;-82
2023/05/08 06:14:57;;;;;;;20.65;15.63;;;;;;;38.47;15.82;101457.72;4897043;28;97117;-81
2023/05/08 06:17:23;;;;;;;16.83;15.73;;;;;;;38.56;16.25;101452.03;4905858;28;100980;-80
2023/05/08 06:19:52;;;;;;;16.95;15.35;;;;;;;40.28;14.94;101448.88;4901039;28;99572;-81
2023/05/08 06:22:22;;;;;;;16.00;14.98;;;;;;;41.14;14.27;101444.59;4890306;28;97365;-81
2023/05/08 06:24:54;;;;;;;16.95;15.50;;;;;;;41.82;13.78;101451.00;4880641;28;97212;-81
2023/05/08 06:27:21;;;;;;;16.52;15.48;;;;;;;42.63;13.34;101451.53;4908290;28;98195;-80
2023/05/08 06:29:50;;;;;;;15.43;14.32;;;;;;;40.90;13.78;101453.69;4901030;28;97324;-79
2023/05/08 06:32:16;;;;;;;16.30;15.27;;;;;;;42.89;13.09;101445.59;4898502;28;97368;-79
2023/05/08 06:34:41;;;;;;;15.25;14.05;;;;;;;40.30;13.77;101459.66;4901040;28;97490;-79
2023/05/08 06:37:07;;;;;;;15.25;14.25;;;;;;;42.96;12.92;101453.72;4900256;28;97807;-79
2023/05/08 06:39:32;;;;;;;15.88;14.95;;;;;;;43.85;12.12;101464.53;4930114;28;97886;-80
2023/05/08 06:41:58;;;;;;;15.82;14.82;;;;;;;43.94;12.33;101451.19;4896854;28;97476;-79
2023/05/08 06:44:28;;;;;;;15.05;14.05;;;;;;;44.60;11.67;101451.53;4880159;28;97021;-81
2023/05/08 06:46:54;;;;;;;14.98;13.88;;;;;;;46.03;11.42;101448.00;4893265;28;102061;-82
2023/05/08 06:49:19;;;;;;;15.63;14.63;;;;;;;46.91;10.67;101436.53;4892644;28;100506;-84
2023/05/08 06:51:45;;;;;;;16.65;15.35;;;;;;;47.30;10.46;101450.91;4895729;28;97354;-85
2023/05/08 06:54:10;;;;;;;16.42;15.32;;;;;;;45.79;11.52;101439.09;4873077;28;97424;-90
2023/05/08 06:56:36;;;;;;;15.82;14.73;;;;;;;46.39;10.32;101443.63;4910036;28;103092;-85
2023/05/08 06:59:02;;;;;;;16.67;15.55;;;;;;;47.50;9.96;101452.97;4894796;28;101817;-85
2023/05/08 07:01:27;;;;;;;16.23;15.13;;;;;;;44.75;10.90;101457.34;4895764;28;97400;-87
2023/05/08 07:03:53;;;;;;;15.15;14.15;;;;;;;46.41;10.54;101437.81;4893906;28;97074;-83
2023/05/08 07:06:18;;;;;;;15.00;14.00;;;;;;;46.69;10.27;101447.75;4902219;28;98259;-84
2023/05/08 07:08:44;;;;;;;15.05;14.02;;;;;;;46.15;10.34;101453.38;4912519;28;101449;-84
2023/05/08 07:11:09;;;;;;;15.82;14.82;;;;;;;45.58;10.46;101451.88;4899175;28;96859;-86
2023/05/08 07:13:35;;;;;;;15.85;14.93;;;;;;;48.39;9.62;101459.31;4927828;28;98115;-87
2023/05/08 07:16:01;;;;;;;15.27;14.38;;;;;;;46.06;10.29;101453.00;4928199;28;101442;-87
2023/05/08 07:18:27;;;;;;;15.05;13.95;;;;;;;48.39;9.15;101461.25;4904302;28;99925;-86
2023/05/08 07:20:52;;;;;;;15.77;14.57;;;;;;;45.81;10.15;101457.16;4918803;28;97302;-87
2023/05/08 07:23:18;;;;;;;15.45;14.48;;;;;;;47.65;9.19;101448.56;4925045;28;97680;-86
2023/05/08 07:25:44;;;;;;;15.20;14.27;;;;;;;47.11;9.76;101450.56;4917794;28;98089;-86
2023/05/08 07:28:09;;;;;;;14.18;13.38;;;;;;;47.53;9.30;101451.59;4922909;28;101175;-87
2023/05/08 07:30:35;;;;;;;14.85;13.75;;;;;;;47.40;9.75;101444.59;4918030;28;97315;-85
2023/05/08 07:33:01;;;;;;;14.20;13.30;;;;;;;49.18;8.69;101457.81;4906106;28;97245;-89
2023/05/08 07:35:28;;;;;;;15.38;14.27;;;;;;;48.49;9.03;101458.44;4947658;28;101042;-87
2023/05/08 07:37:53;;;;;;;15.35;14.45;;;;;;;49.44;8.50;101437.38;4908634;28;100921;-86
2023/05/08 07:40:19;;;;;;;15.32;14.25;;;;;;;49.61;7.90;101458.22;4931760;28;97285;-86
2023/05/08 07:42:44;;;;;;;15.25;14.35;;;;;;;48.66;8.16;101450.66;4918618;28;98437;-88
2023/05/08 07:45:12;;;;;;;14.85;13.85;;;;;;;48.32;8.45;101455.94;4913377;28;101409;-81
2023/05/08 07:47:56;;;;;;;15.13;14.00;;;;;;;48.99;8.35;101461.50;4919793;28;97326;-85
2023/05/08 07:50:23;;;;;;;16.67;15.68;;;;;;;50.92;8.19;101447.44;4891225;28;96870;-80
2023/05/08 07:52:49;;;;;;;15.57;14.40;;;;;;;49.83;7.88;101451.38;4898631;28;97334;-79
2023/05/08 07:55:15;;;;;;;14.65;13.75;;;;;;;50.88;7.88;101438.81;4905465;28;97443;-80
2023/05/08 07:57:42;;;;;;;15.30;14.32;;;;;;;50.18;7.51;101447.53;4932726;28;97433;-80
2023/05/08 08:00:10;;;;;;;16.27;15.07;;;;;;;50.87;7.46;101447.50;4922020;28;97446;-80
2023/05/08 08:02:39;;;;;;;15.63;14.73;;;;;;;52.41;7.85;101440.63;4929407;28;96795;-80
2023/05/08 08:05:05;;;;;;;14.70;13.80;;;;;;;52.03;7.55;101440.69;4916193;28;99769;-79
2023/05/08 08:07:31;;;;;;;16.50;15.35;;;;;;;52.19;7.54;101460.84;4905738;28;101582;-81
2023/05/08 08:09:58;;;;;;;17.48;16.45;;;;;;;48.38;8.49;101457.66;4926449;28;97007;-82
2023/05/08 08:12:25;;;;;;;16.05;15.07;;;;;;;51.66;7.50;101442.34;4932786;28;97272;-79
2023/05/08 08:14:51;;;;;;;14.80;13.90;;;;;;;53.75;7.10;101440.41;4920777;28;98735;-80
2023/05/08 08:17:17;;;;;;;15.95;14.95;;;;;;;53.88;6.75;101437.88;4900660;28;101309;-82
2023/05/08 08:19:42;;;;;;;15.73;14.73;;;;;;;52.62;7.14;101438.28;4916808;28;96773;-80
2023/05/08 08:22:08;;;;;;;15.65;14.75;;;;;;;52.58;7.37;101446.47;4928182;28;97189;-81
2023/05/08 08:24:33;;;;;;;15.82;14.82;;;;;;;52.57;7.30;101432.75;4900037;28;101038;-80
2023/05/08 08:26:59;;;;;;;17.33;16.23;;;;;;;53.52;7.55;101433.09;4910289;28;100146;-80
2023/05/08 08:29:24;;;;;;;16.63;15.63;;;;;;;51.02;7.31;101430.56;4896819;28;97875;-80
2023/05/08 08:31:50;;;;;;;17.55;16.35;;;;;;;52.72;7.06;101432.50;4917742;28;97310;-81
2023/05/08 08:34:16;;;;;;;15.32;14.40;;;;;;;51.42;7.16;101439.59;4909098;28;97380;-81
2023/05/08 08:36:41;;;;;;;16.10;15.20;;;;;;;49.81;7.93;101434.97;4908960;28;98014;-81
2023/05/08 08:39:07;;;;;;;16.35;15.43;;;;;;;48.94;8.22;101440.91;4924870;28;97232;-80
2023/05/08 08:41:32;;;;;;;16.27;15.25;;;;;;;49.90;8.61;101418.44;4943311;28;97226;-80
2023/05/08 08:43:58;;;;;;;16.58;15.38;;;;;;;48.32;8.64;101430.06;4916477;28;101483;-80
2023/05/08 08:46:25;;;;;;;16.35;15.30;;;;;;;48.46;9.00;101428.38;4903356;28;101292;-80
2023/05/08 08:48:53;;;;;;;16.30;15.32;;;;;;;46.00;9.79;101429.09;4891607;28;97437;-81
2023/05/08 08:51:27;;;;;;;16.45;15.35;;;;;;;46.47;9.63;101429.25;4895385;28;97549;-80
2023/05/08 08:54:05;;;;;;;16.30;15.30;;;;;;;44.55;10.56;101421.03;4923552;28;98169;-80
2023/05/08 08:56:32;;;;;;;16.23;15.10;;;;;;;41.30;11.61;101414.75;4908629;28;101705;-80
2023/05/08 08:58:59;;;;;;;15.73;14.82;;;;;;;36.70;14.24;101435.50;4943124;28;97345;-80
2023/05/08 09:01:28;;;;;;;15.93;14.93;;;;;;;34.88;15.78;101437.16;4900443;28;97368;-80
2023/05/08 09:03:53;;;;;;;;;;;;;;;31.45;18.68;101447.56;4905884;28;97530;-82
2023/05/08 09:06:19;;;;;;;15.93;14.93;;;;;;;28.69;20.84;101436.09;4912366;28;101255;-80
2023/05/08 09:08:45;;;;;;;16.63;15.55;;;;;;;28.97;20.54;101455.94;4929797;28;96890;-82
2023/05/08 09:11:10;;;;;;;18.27;17.00;;;;;;;28.85;21.02;101455.25;4909914;28;97209;-79
2023/05/08 09:13:36;;;;;;;16.25;15.27;;;;;;;26.60;22.75;101454.47;4928375;28;100989;-79
2023/05/08 09:16:02;;;;;;;17.38;16.20;;;;;;;25.51;23.98;101466.84;4913556;28;100982;-79
2023/05/08 09:18:27;;;;;;;18.52;16.98;;;;;;;24.30;24.78;101429.56;4919143;28;97141;-83
2023/05/08 09:20:53;;;;;;;16.67;15.63;;;;;;;24.59;25.00;101459.63;4914026;28;97175;-83
2023/05/08 09:23:19;;;;;;;17.38;16.27;;;;;;;24.14;25.66;101454.84;4902755;28;101629;-83
2023/05/08 09:25:51;;;;;;;17.98;16.48;;;;;;;23.06;26.38;101447.31;4911601;28;101437;-81
2023/05/08 09:28:21;;;;;;;17.20;16.00;;;;;;;21.20;28.35;101458.38;4914145;28;97291;-79
2023/05/08 09:30:59;;;;;;;17.63;16.38;;;;;;;21.68;28.64;101464.34;4920086;28;97773;-79
2023/05/08 09:33:26;;;;;;;17.70;16.60;;;;;;;21.97;28.51;101459.84;4903770;28;100737;-79
2023/05/08 09:35:53;;;;;;;17.40;16.20;;;;;;;20.82;29.74;101474.00;4912098;28;101334;-79
2023/05/08 09:38:34;;;;;;;17.70;16.50;;;;;;;20.81;30.34;101478.50;4915277;28;97359;-78
2023/05/08 09:41:13;;;;;;;17.67;16.58;;;;;;;21.08;30.25;101445.78;4909692;28;96862;-81
2023/05/08 09:43:39;;;;;;;17.02;15.63;;;;;;;19.83;32.01;101476.88;4921800;28;101579;-78
2023/05/08 09:46:20;;;;;;;16.75;15.45;;;;;;;20.50;31.48;101476.69;4905091;28;101107;-79
2023/05/08 09:48:46;;;;;;;16.17;15.07;;;;;;;20.01;31.99;101464.38;4943992;28;97384;-79
2023/05/08 09:51:12;;;;;;;17.33;16.23;;;;;;;19.95;31.65;101464.69;4926787;28;96830;-79
2023/05/08 09:53:37;;;;;;;17.25;16.15;;;;;;;19.81;32.06;101473.44;4944843;28;96824;-79
2023/05/08 09:56:03;;;;;;;17.50;16.25;;;;;;;19.36;32.12;101447.44;4909901;28;100909;-80
2023/05/08 09:58:40;;;;;;;17.52;16.33;;;;;;;19.54;31.50;101480.22;4940564;28;97353;-78
2023/05/08 10:01:06;;;;;;;16.92;15.63;;;;;;;19.19;32.65;101474.94;4907899;28;97089;-79
2023/05/08 10:03:48;;;;;;;16.35;15.25;;;;;;;18.12;34.22;101477.56;4911364;28;100479;-80
2023/05/08 10:06:14;;;;;;;17.00;15.70;;;;;;;18.29;34.16;101465.19;4910202;28;101401;-80
2023/05/08 10:08:40;;;;;;;17.42;16.23;;;;;;;18.05;34.74;101448.63;4876662;28;97201;-80
2023/05/08 10:11:16;;;;;;;16.65;15.45;;;;;;;18.92;33.05;101472.75;4901452;28;97562;-80
2023/05/08 10:13:43;;;;;;;17.70;16.45;;;;;;;18.27;34.29;101458.25;4890827;28;101047;-80
2023/05/08 10:16:15;;;;;;;17.35;15.95;;;;;;;17.24;35.41;101457.59;4903682;28;101612;-80
2023/05/08 10:18:48;;;;;;;17.17;15.80;;;;;;;17.57;35.32;101454.38;4909234;28;97170;-80
2023/05/08 10:21:15;;;;;;;17.05;15.65;;;;;;;17.05;35.81;101462.00;4909024;28;96800;-80
2023/05/08 10:23:46;;;;;;;17.25;15.82;;;;;;;17.62;35.07;101455.91;4903939;28;97596;-80
2023/05/08 10:26:26;;;;;;;16.60;15.32;;;;;;;17.05;35.97;101480.59;4899239;28;97511;-78
2023/05/08 10:28:57;;;;;;;17.37;15.70;;;;;;;16.97;36.28;101472.94;4909494;28;96912;-80
2023/05/08 10:31:27;;;;;;;17.33;16.03;;;;;;;16.74;36.51;101469.41;4897075;28;97226;-80
2023/05/08 10:34:00;;;;;;;16.17;14.90;;;;;;;17.17;36.07;101448.22;4914048;28;98095;-82
2023/05/08 10:36:27;;;;;;;16.13;14.52;;;;;;;16.29;36.14;101448.31;4897873;28;100947;-80
2023/05/08 10:38:53;;;;;;;16.10;14.68;;;;;;;16.86;37.07;101443.34;4899364;28;96778;-79
2023/05/08 10:41:19;;;;;;;15.77;14.10;;;;;;;16.70;36.22;101451.94;4911783;28;97415;-80
2023/05/08 10:43:45;;;;;;;15.35;14.32;;;;;;;16.81;36.69;101437.38;4897465;28;97437;-79
2023/05/08 10:46:21;;;;;;;15.82;14.68;;;;;;;16.85;36.47;101429.25;4881042;28;99690;-80
2023/05/08 10:48:55;;;;;;;16.60;15.23;;;;;;;16.32;36.79;101444.66;4887791;28;97269;-79
2023/05/08 10:51:31;;;;;;;15.93;14.80;;;;;;;16.64;36.51;101435.41;4887611;28;97276;-79
2023/05/08 10:54:09;;;;;;;15.45;14.23;;;;;;;16.53;36.24;101446.47;4898145;28;101827;-79
2023/05/08 10:56:37;;;;;;;16.08;14.73;;;;;;;16.30;36.72;101444.75;4912094;28;98376;-78
2023/05/08 10:59:02;;;;;;;16.25;15.13;;;;;;;15.93;37.42;101443.53;4875229;28;97468;-79
2023/05/08 11:01:28;;;;;;;17.70;16.17;;;;;;;16.55;36.55;101446.38;4897902;28;97236;-79
2023/05/08 11:03:54;;;;;;;16.42;15.32;;;;;;;16.79;36.41;101442.75;4911234;28;97625;-79
2023/05/08 11:06:41;;;;;;;15.93;14.65;;;;;;;16.49;37.21;101444.84;4896867;28;101081;-79
2023/05/08 11:09:07;;;;;;;16.23;14.98;;;;;;;16.60;37.31;101442.63;4903972;28;97345;-79
2023/05/08 11:11:38;;;;;;;18.75;16.90;;;;;;;16.74;36.53;101442.91;4903935;28;97500;-79
2023/05/08 11:14:06;;;;;;;16.60;15.37;;;;;;;15.87;37.18;101443.78;4888107;28;101464;-80
2023/05/08 11:16:55;;;;;;;15.90;14.80;;;;;;;16.20;37.48;101438.06;4904003;28;97824;-79
2023/05/08 11:19:22;;;;;;;17.17;16.08;;;;;;;16.46;37.14;101437.03;4890930;28;97362;-80